sensor_id;sensor_type;location;lat;lon;timestamp;P1;durP1;ratioP1;P2;durP2;ratioP2
82773;SDS011;72508;45.118;20.728;2023-11-19T00:05:53;20.42;;;9.18;;
82773;SDS011;72508;45.118;20.728;2023-11-19T00:15:54;18.50;;;8.18;;
82773;SDS011;72508;45.118;20.728;2023-11-19T00:25:57;23.90;;;10.57;;
82773;SDS011;72508;45.118;20.728;2023-11-19T00:35:59;18.58;;;10.07;;
82773;SDS011;72508;45.118;20.728;2023-11-19T00:46:01;17.10;;;7.25;;
82773;SDS011;72508;45.118;20.728;2023-11-19T00:56:04;6.30;;;4.93;;
82773;SDS011;72508;45.118;20.728;2023-11-19T01:06:06;7.28;;;5.10;;
82773;SDS011;72508;45.118;20.728;2023-11-19T01:16:09;7.57;;;4.93;;
82773;SDS011;72508;45.118;20.728;2023-11-19T01:26:12;6.78;;;3.22;;
82773;SDS011;72508;45.118;20.728;2023-11-19T01:36:14;9.88;;;8.85;;
82773;SDS011;72508;45.118;20.728;2023-11-19T01:46:16;7.32;;;5.45;;
82773;SDS011;72508;45.118;20.728;2023-11-19T01:56:18;5.47;;;2.83;;
82773;SDS011;72508;45.118;20.728;2023-11-19T02:06:21;9.13;;;5.75;;
82773;SDS011;72508;45.118;20.728;2023-11-19T02:16:24;8.98;;;6.40;;
82773;SDS011;72508;45.118;20.728;2023-11-19T02:26:32;8.85;;;5.40;;
82773;SDS011;72508;45.118;20.728;2023-11-19T02:36:41;9.30;;;4.63;;
82773;SDS011;72508;45.118;20.728;2023-11-19T02:46:43;8.27;;;5.68;;
82773;SDS011;72508;45.118;20.728;2023-11-19T02:56:44;7.68;;;6.07;;
82773;SDS011;72508;45.118;20.728;2023-11-19T03:06:49;9.65;;;7.30;;
82773;SDS011;72508;45.118;20.728;2023-11-19T03:16:51;9.23;;;5.82;;
82773;SDS011;72508;45.118;20.728;2023-11-19T03:26:53;9.65;;;6.18;;
82773;SDS011;72508;45.118;20.728;2023-11-19T03:36:54;10.57;;;6.18;;
82773;SDS011;72508;45.118;20.728;2023-11-19T03:56:58;6.68;;;5.35;;
82773;SDS011;72508;45.118;20.728;2023-11-19T04:17:04;9.02;;;4.70;;
82773;SDS011;72508;45.118;20.728;2023-11-19T04:27:06;8.13;;;5.53;;
82773;SDS011;72508;45.118;20.728;2023-11-19T04:37:08;7.78;;;4.93;;
82773;SDS011;72508;45.118;20.728;2023-11-19T04:47:10;6.38;;;4.85;;
82773;SDS011;72508;45.118;20.728;2023-11-19T04:57:12;13.40;;;6.15;;
82773;SDS011;72508;45.118;20.728;2023-11-19T05:07:14;9.63;;;8.57;;
82773;SDS011;72508;45.118;20.728;2023-11-19T05:17:17;8.07;;;6.32;;
82773;SDS011;72508;45.118;20.728;2023-11-19T05:27:20;7.53;;;4.82;;
82773;SDS011;72508;45.118;20.728;2023-11-19T05:37:22;11.60;;;7.75;;
82773;SDS011;72508;45.118;20.728;2023-11-19T05:47:24;15.15;;;7.43;;
82773;SDS011;72508;45.118;20.728;2023-11-19T05:57:25;14.57;;;8.70;;
82773;SDS011;72508;45.118;20.728;2023-11-19T06:07:28;14.75;;;9.48;;
82773;SDS011;72508;45.118;20.728;2023-11-19T06:27:32;59.03;;;21.83;;
82773;SDS011;72508;45.118;20.728;2023-11-19T06:37:41;51.53;;;20.30;;
82773;SDS011;72508;45.118;20.728;2023-11-19T06:47:43;24.10;;;11.95;;
82773;SDS011;72508;45.118;20.728;2023-11-19T06:57:44;21.67;;;9.93;;
82773;SDS011;72508;45.118;20.728;2023-11-19T07:07:46;11.65;;;5.38;;
82773;SDS011;72508;45.118;20.728;2023-11-19T07:17:48;19.65;;;11.13;;
82773;SDS011;72508;45.118;20.728;2023-11-19T07:27:51;15.88;;;9.30;;
82773;SDS011;72508;45.118;20.728;2023-11-19T07:37:53;16.15;;;6.72;;
82773;SDS011;72508;45.118;20.728;2023-11-19T07:47:54;19.10;;;11.25;;
82773;SDS011;72508;45.118;20.728;2023-11-19T07:57:56;39.75;;;18.65;;
82773;SDS011;72508;45.118;20.728;2023-11-19T08:07:58;20.20;;;10.23;;
82773;SDS011;72508;45.118;20.728;2023-11-19T08:17:59;16.83;;;9.18;;
82773;SDS011;72508;45.118;20.728;2023-11-19T08:28:01;24.42;;;12.70;;
82773;SDS011;72508;45.118;20.728;2023-11-19T08:38:04;97.63;;;29.35;;
82773;SDS011;72508;45.118;20.728;2023-11-19T08:48:06;15.25;;;9.65;;
82773;SDS011;72508;45.118;20.728;2023-11-19T08:58:07;10.98;;;8.98;;
82773;SDS011;72508;45.118;20.728;2023-11-19T09:08:09;14.82;;;9.18;;
82773;SDS011;72508;45.118;20.728;2023-11-19T09:18:12;14.82;;;9.35;;
82773;SDS011;72508;45.118;20.728;2023-11-19T09:28:14;44.17;;;16.90;;
82773;SDS011;72508;45.118;20.728;2023-11-19T09:38:16;13.32;;;8.30;;
82773;SDS011;72508;45.118;20.728;2023-11-19T09:48:18;11.60;;;7.13;;
82773;SDS011;72508;45.118;20.728;2023-11-19T09:58:20;21.42;;;11.30;;
82773;SDS011;72508;45.118;20.728;2023-11-19T10:08:22;27.52;;;13.27;;
82773;SDS011;72508;45.118;20.728;2023-11-19T10:18:27;14.48;;;9.20;;
82773;SDS011;72508;45.118;20.728;2023-11-19T10:28:33;14.75;;;8.80;;
82773;SDS011;72508;45.118;20.728;2023-11-19T10:38:40;17.63;;;9.52;;
82773;SDS011;72508;45.118;20.728;2023-11-19T10:48:52;16.73;;;9.00;;
82773;SDS011;72508;45.118;20.728;2023-11-19T10:58:54;12.25;;;7.65;;
82773;SDS011;72508;45.118;20.728;2023-11-19T11:08:56;24.30;;;12.50;;
82773;SDS011;72508;45.118;20.728;2023-11-19T11:18:59;32.15;;;10.00;;
82773;SDS011;72508;45.118;20.728;2023-11-19T11:29:02;19.05;;;9.38;;
82773;SDS011;72508;45.118;20.728;2023-11-19T11:39:07;11.38;;;7.97;;
82773;SDS011;72508;45.118;20.728;2023-11-19T11:49:09;24.55;;;10.75;;
82773;SDS011;72508;45.118;20.728;2023-11-19T11:59:18;12.80;;;7.78;;
82773;SDS011;72508;45.118;20.728;2023-11-19T12:09:20;12.55;;;7.32;;
82773;SDS011;72508;45.118;20.728;2023-11-19T12:19:21;13.43;;;9.95;;
82773;SDS011;72508;45.118;20.728;2023-11-19T12:29:23;9.50;;;5.53;;
82773;SDS011;72508;45.118;20.728;2023-11-19T12:39:25;12.68;;;7.10;;
82773;SDS011;72508;45.118;20.728;2023-11-19T12:49:31;8.98;;;5.70;;
82773;SDS011;72508;45.118;20.728;2023-11-19T12:59:33;11.40;;;6.82;;
82773;SDS011;72508;45.118;20.728;2023-11-19T13:09:35;14.60;;;6.82;;
82773;SDS011;72508;45.118;20.728;2023-11-19T13:19:37;19.73;;;9.77;;
82773;SDS011;72508;45.118;20.728;2023-11-19T13:29:38;18.08;;;7.28;;
82773;SDS011;72508;45.118;20.728;2023-11-19T13:39:43;11.68;;;7.38;;
82773;SDS011;72508;45.118;20.728;2023-11-19T13:49:45;8.32;;;5.55;;
82773;SDS011;72508;45.118;20.728;2023-11-19T13:59:50;10.25;;;8.18;;
82773;SDS011;72508;45.118;20.728;2023-11-19T14:09:51;15.52;;;9.77;;
82773;SDS011;72508;45.118;20.728;2023-11-19T14:19:53;9.82;;;7.25;;
82773;SDS011;72508;45.118;20.728;2023-11-19T14:29:55;11.25;;;8.00;;
82773;SDS011;72508;45.118;20.728;2023-11-19T14:39:57;13.50;;;7.70;;
82773;SDS011;72508;45.118;20.728;2023-11-19T14:49:59;18.25;;;11.32;;
82773;SDS011;72508;45.118;20.728;2023-11-19T15:00:00;27.92;;;14.82;;
82773;SDS011;72508;45.118;20.728;2023-11-19T15:10:02;34.03;;;19.75;;
82773;SDS011;72508;45.118;20.728;2023-11-19T15:20:05;54.00;;;26.70;;
82773;SDS011;72508;45.118;20.728;2023-11-19T15:30:07;93.43;;;44.80;;
82773;SDS011;72508;45.118;20.728;2023-11-19T15:40:10;130.60;;;57.92;;
82773;SDS011;72508;45.118;20.728;2023-11-19T15:50:13;179.73;;;75.53;;
82773;SDS011;72508;45.118;20.728;2023-11-19T16:00:15;145.93;;;69.57;;
82773;SDS011;72508;45.118;20.728;2023-11-19T16:10:18;125.28;;;59.28;;
82773;SDS011;72508;45.118;20.728;2023-11-19T16:20:20;141.85;;;65.18;;
82773;SDS011;72508;45.118;20.728;2023-11-19T16:30:22;74.30;;;35.03;;
82773;SDS011;72508;45.118;20.728;2023-11-19T16:40:23;69.65;;;33.33;;
82773;SDS011;72508;45.118;20.728;2023-11-19T16:50:26;39.38;;;20.73;;
82773;SDS011;72508;45.118;20.728;2023-11-19T17:00:28;35.67;;;19.52;;
82773;SDS011;72508;45.118;20.728;2023-11-19T17:10:29;28.63;;;14.48;;
82773;SDS011;72508;45.118;20.728;2023-11-19T17:20:31;23.55;;;15.20;;
82773;SDS011;72508;45.118;20.728;2023-11-19T17:30:33;24.65;;;15.20;;
82773;SDS011;72508;45.118;20.728;2023-11-19T17:40:38;34.53;;;18.15;;
82773;SDS011;72508;45.118;20.728;2023-11-19T17:50:39;24.73;;;11.27;;
82773;SDS011;72508;45.118;20.728;2023-11-19T18:00:41;29.65;;;14.18;;
82773;SDS011;72508;45.118;20.728;2023-11-19T18:10:45;36.05;;;15.50;;
82773;SDS011;72508;45.118;20.728;2023-11-19T18:20:48;21.58;;;13.18;;
82773;SDS011;72508;45.118;20.728;2023-11-19T18:30:52;23.80;;;13.13;;
82773;SDS011;72508;45.118;20.728;2023-11-19T18:40:53;30.17;;;17.27;;
82773;SDS011;72508;45.118;20.728;2023-11-19T18:50:57;34.47;;;17.30;;
82773;SDS011;72508;45.118;20.728;2023-11-19T19:00:59;33.95;;;15.75;;
82773;SDS011;72508;45.118;20.728;2023-11-19T19:21:03;35.78;;;18.52;;
82773;SDS011;72508;45.118;20.728;2023-11-19T19:31:05;33.33;;;17.38;;
82773;SDS011;72508;45.118;20.728;2023-11-19T19:41:07;50.67;;;25.38;;
82773;SDS011;72508;45.118;20.728;2023-11-19T19:51:09;59.55;;;27.65;;
82773;SDS011;72508;45.118;20.728;2023-11-19T20:01:12;58.95;;;26.30;;
82773;SDS011;72508;45.118;20.728;2023-11-19T20:11:14;44.60;;;22.73;;
82773;SDS011;72508;45.118;20.728;2023-11-19T20:21:16;53.80;;;24.05;;
82773;SDS011;72508;45.118;20.728;2023-11-19T20:31:18;47.28;;;23.42;;
82773;SDS011;72508;45.118;20.728;2023-11-19T20:41:19;41.72;;;21.55;;
82773;SDS011;72508;45.118;20.728;2023-11-19T20:51:21;38.50;;;19.77;;
82773;SDS011;72508;45.118;20.728;2023-11-19T21:01:22;30.90;;;16.67;;
82773;SDS011;72508;45.118;20.728;2023-11-19T21:11:24;39.20;;;20.35;;
82773;SDS011;72508;45.118;20.728;2023-11-19T21:21:26;47.00;;;24.90;;
82773;SDS011;72508;45.118;20.728;2023-11-19T21:41:29;42.45;;;19.90;;
82773;SDS011;72508;45.118;20.728;2023-11-19T21:51:31;34.78;;;18.45;;
82773;SDS011;72508;45.118;20.728;2023-11-19T22:01:32;40.78;;;21.67;;
82773;SDS011;72508;45.118;20.728;2023-11-19T22:21:36;34.38;;;14.10;;
82773;SDS011;72508;45.118;20.728;2023-11-19T22:31:37;31.75;;;15.05;;
82773;SDS011;72508;45.118;20.728;2023-11-19T22:51:41;24.88;;;11.10;;
82773;SDS011;72508;45.118;20.728;2023-11-19T23:11:45;27.02;;;14.73;;
82773;SDS011;72508;45.118;20.728;2023-11-19T23:31:49;23.33;;;12.93;;
82773;SDS011;72508;45.118;20.728;2023-11-19T23:41:50;26.05;;;13.15;;
82773;SDS011;72508;45.118;20.728;2023-11-19T23:51:52;28.10;;;15.32;;
